Time;durP1;ratioP1;P1;durP2;ratioP2;P2;SDS_P1;SDS_P2;PMS_P1;PMS_P2;Temp;Humidity;BMP_temperature;BMP_pressure;BME280_temperature;BME280_humidity;BME280_pressure;Samples;Min_cycle;Max_cycle;Signal;HPM_P1;HPM_P2
2023/09/26 00:00:21;;;;;;;3.17;2.40;;;;;;;;;;4996773;28;20450;-56
2023/09/26 00:02:49;;;;;;;3.63;2.60;;;;;;;;;;5008235;28;21016;-55
2023/09/26 00:05:18;;;;;;;4.40;3.20;;;;;;;;;;5012977;28;20897;-55
2023/09/26 00:07:45;;;;;;;5.90;2.70;;;;;;;;;;5006055;28;20550;-55
2023/09/26 00:10:13;;;;;;;7.37;2.73;;;;;;;;;;5007156;28;20450;-55
2023/09/26 00:12:40;;;;;;;3.93;2.40;;;;;;;;;;4996514;28;20448;-55
2023/09/26 00:15:08;;;;;;;5.23;2.70;;;;;;;;;;5009703;28;20963;-55
2023/09/26 00:17:36;;;;;;;4.37;2.20;;;;;;;;;;5000692;28;20491;-55
2023/09/26 00:20:15;;;;;;;3.40;2.40;;;;;;;;;;5003221;28;21003;-55
2023/09/26 00:22:42;;;;;;;4.70;2.40;;;;;;;;;;5009212;28;21029;-55
2023/09/26 00:25:11;;;;;;;3.30;2.10;;;;;;;;;;5005378;28;20538;-55
2023/09/26 00:27:38;;;;;;;4.80;2.13;;;;;;;;;;5000544;28;20471;-57
2023/09/26 00:30:08;;;;;;;3.60;2.40;;;;;;;;;;5011290;28;20451;-55
2023/09/26 00:32:38;;;;;;;3.40;2.37;;;;;;;;;;5009085;28;20461;-56
2023/09/26 00:35:08;;;;;;;3.33;1.80;;;;;;;;;;5011597;28;20830;-57
2023/09/26 00:37:35;;;;;;;2.93;2.13;;;;;;;;;;5003856;28;20562;-56
2023/09/26 00:40:03;;;;;;;3.40;2.20;;;;;;;;;;5005380;28;20874;-55
2023/09/26 00:42:30;;;;;;;3.00;2.03;;;;;;;;;;5010485;28;20459;-55
2023/09/26 00:44:57;;;;;;;3.70;3.00;;;;;;;;;;5010444;28;20455;-55
2023/09/26 00:47:25;;;;;;;2.83;2.20;;;;;;;;;;5003735;28;20486;-55
2023/09/26 00:49:54;;;;;;;3.93;2.10;;;;;;;;;;5006307;28;20592;-56
2023/09/26 00:52:22;;;;;;;5.23;2.67;;;;;;;;;;5010500;28;20466;-55
2023/09/26 00:54:49;;;;;;;4.20;2.37;;;;;;;;;;5012508;28;20443;-55
2023/09/26 00:57:16;;;;;;;3.70;2.27;;;;;;;;;;5009677;28;20491;-55
2023/09/26 00:59:44;;;;;;;2.97;2.13;;;;;;;;;;5010437;28;21007;-56
2023/09/26 01:02:11;;;;;;;3.20;2.40;;;;;;;;;;5009656;28;20440;-55
2023/09/26 01:04:39;;;;;;;3.93;2.33;;;;;;;;;;5010624;28;21192;-55
2023/09/26 01:07:08;;;;;;;3.20;2.17;;;;;;;;;;5010579;28;20451;-56
2023/09/26 01:09:36;;;;;;;3.70;2.47;;;;;;;;;;5010452;28;20449;-56
2023/09/26 01:12:03;;;;;;;4.60;2.80;;;;;;;;;;5011053;28;20451;-56
2023/09/26 01:14:31;;;;;;;6.53;2.80;;;;;;;;;;5011608;28;20462;-55
2023/09/26 01:16:58;;;;;;;3.37;2.47;;;;;;;;;;5011412;28;20448;-55
2023/09/26 01:19:25;;;;;;;3.60;2.70;;;;;;;;;;5011094;28;20522;-56
2023/09/26 01:21:54;;;;;;;3.33;2.87;;;;;;;;;;5011512;28;20451;-55
2023/09/26 01:24:22;;;;;;;3.27;2.40;;;;;;;;;;5011091;28;20443;-55
2023/09/26 01:26:49;;;;;;;4.13;2.40;;;;;;;;;;5011600;28;20712;-55
2023/09/26 01:29:17;;;;;;;3.50;2.13;;;;;;;;;;5011596;28;20463;-55
2023/09/26 01:31:44;;;;;;;3.27;2.30;;;;;;;;;;5010924;28;20501;-56
2023/09/26 01:34:12;;;;;;;2.87;2.30;;;;;;;;;;5009904;28;20479;-55
2023/09/26 01:36:39;;;;;;;4.70;3.30;;;;;;;;;;5010334;28;20455;-56
2023/09/26 01:39:07;;;;;;;4.83;2.90;;;;;;;;;;5009669;28;20577;-55
2023/09/26 01:41:35;;;;;;;3.33;2.57;;;;;;;;;;5009556;28;20877;-55
2023/09/26 01:44:02;;;;;;;3.30;2.30;;;;;;;;;;5010301;28;20447;-57
2023/09/26 01:46:30;;;;;;;7.67;2.53;;;;;;;;;;5010623;28;20836;-55
2023/09/26 01:48:57;;;;;;;4.90;2.80;;;;;;;;;;5010971;28;20491;-57
2023/09/26 01:51:24;;;;;;;4.30;2.67;;;;;;;;;;5008169;28;20842;-54
2023/09/26 01:53:51;;;;;;;4.23;2.40;;;;;;;;;;4991447;28;20459;-55
2023/09/26 01:56:19;;;;;;;4.17;2.00;;;;;;;;;;4992309;28;20447;-55
2023/09/26 01:58:47;;;;;;;3.43;2.40;;;;;;;;;;4993311;28;20574;-55
2023/09/26 02:01:15;;;;;;;3.70;2.33;;;;;;;;;;4999963;28;21748;-56
2023/09/26 02:03:42;;;;;;;4.10;2.73;;;;;;;;;;5005593;28;20455;-55
2023/09/26 02:06:10;;;;;;;3.80;2.60;;;;;;;;;;5011132;28;20494;-55
2023/09/26 02:08:37;;;;;;;5.00;2.70;;;;;;;;;;4999873;28;20455;-55
2023/09/26 02:11:04;;;;;;;4.10;2.43;;;;;;;;;;5005299;28;20460;-55
2023/09/26 02:13:32;;;;;;;3.30;2.57;;;;;;;;;;5001917;28;20501;-57
2023/09/26 02:16:00;;;;;;;3.00;2.47;;;;;;;;;;5010344;28;20486;-55
2023/09/26 02:18:28;;;;;;;4.27;2.33;;;;;;;;;;5002469;28;20643;-55
2023/09/26 02:20:55;;;;;;;4.37;2.40;;;;;;;;;;5000588;28;20821;-56
2023/09/26 02:23:22;;;;;;;5.00;2.67;;;;;;;;;;5004329;28;20448;-55
2023/09/26 02:25:51;;;;;;;2.60;2.00;;;;;;;;;;4997168;28;20523;-55
2023/09/26 02:28:19;;;;;;;3.13;2.23;;;;;;;;;;5008945;28;20469;-56
2023/09/26 02:30:47;;;;;;;4.10;2.60;;;;;;;;;;4996368;28;20499;-55
2023/09/26 02:33:16;;;;;;;4.07;2.13;;;;;;;;;;5001398;28;20794;-55
2023/09/26 02:35:43;;;;;;;5.13;2.80;;;;;;;;;;5004783;28;20449;-56
2023/09/26 02:38:10;;;;;;;3.73;2.33;;;;;;;;;;5010297;28;20504;-55
2023/09/26 02:40:38;;;;;;;2.83;2.07;;;;;;;;;;5003532;28;20476;-56
2023/09/26 02:43:05;;;;;;;3.70;2.40;;;;;;;;;;4995841;28;20448;-57
2023/09/26 02:45:32;;;;;;;3.60;2.43;;;;;;;;;;4991237;28;20514;-55
2023/09/26 02:48:01;;;;;;;2.90;2.20;;;;;;;;;;4991855;28;20546;-55
2023/09/26 02:50:30;;;;;;;6.40;2.53;;;;;;;;;;4990389;28;20543;-55
2023/09/26 02:52:57;;;;;;;4.10;2.37;;;;;;;;;;4990262;28;20456;-55
2023/09/26 02:55:25;;;;;;;2.60;1.90;;;;;;;;;;4991288;28;20454;-55
2023/09/26 02:57:52;;;;;;;3.50;2.63;;;;;;;;;;4991139;28;20492;-57
2023/09/26 03:00:19;;;;;;;5.30;3.40;;;;;;;;;;4993457;28;20509;-55
2023/09/26 03:02:47;;;;;;;3.30;2.30;;;;;;;;;;4999886;28;20470;-55
2023/09/26 03:05:14;;;;;;;3.43;2.27;;;;;;;;;;5004458;28;20832;-57
2023/09/26 03:07:44;;;;;;;4.97;2.63;;;;;;;;;;5005004;28;21048;-55
2023/09/26 03:10:12;;;;;;;3.10;2.10;;;;;;;;;;5009919;28;20443;-55
2023/09/26 03:12:39;;;;;;;4.50;2.70;;;;;;;;;;5007008;28;20451;-56
2023/09/26 03:15:07;;;;;;;3.00;2.33;;;;;;;;;;5006230;28;20484;-57
2023/09/26 03:17:34;;;;;;;3.90;2.40;;;;;;;;;;5001604;28;20894;-55
2023/09/26 03:20:02;;;;;;;4.13;2.70;;;;;;;;;;5002395;28;21003;-56
2023/09/26 03:22:29;;;;;;;5.80;2.70;;;;;;;;;;5000013;28;20455;-55
2023/09/26 03:24:58;;;;;;;3.93;2.60;;;;;;;;;;5002247;28;20510;-55
2023/09/26 03:27:25;;;;;;;3.40;2.50;;;;;;;;;;5002460;28;21077;-57
2023/09/26 03:29:52;;;;;;;4.20;2.90;;;;;;;;;;5002432;28;20521;-56
2023/09/26 03:32:20;;;;;;;3.80;2.30;;;;;;;;;;4999461;28;20478;-56
2023/09/26 03:34:48;;;;;;;3.90;2.57;;;;;;;;;;5007621;28;20455;-56
2023/09/26 03:37:15;;;;;;;3.30;2.50;;;;;;;;;;5001841;28;20455;-55
2023/09/26 03:39:42;;;;;;;4.00;2.50;;;;;;;;;;5004051;28;20505;-55
2023/09/26 03:42:11;;;;;;;3.07;2.23;;;;;;;;;;5005777;28;20667;-55
2023/09/26 03:44:39;;;;;;;3.57;2.03;;;;;;;;;;4990105;28;20455;-56
2023/09/26 03:47:06;;;;;;;6.13;3.10;;;;;;;;;;4998001;28;20828;-57
2023/09/26 03:49:33;;;;;;;3.90;2.60;;;;;;;;;;4995623;28;20534;-55
2023/09/26 03:52:01;;;;;;;6.73;2.60;;;;;;;;;;4994263;28;20530;-56
2023/09/26 03:54:29;;;;;;;3.30;2.37;;;;;;;;;;4991541;28;20444;-55
2023/09/26 03:56:56;;;;;;;3.57;2.40;;;;;;;;;;4993513;28;20447;-56
2023/09/26 03:59:25;;;;;;;3.90;2.53;;;;;;;;;;4994698;28;21020;-55
2023/09/26 04:01:52;;;;;;;3.10;2.50;;;;;;;;;;5002143;28;20540;-55
2023/09/26 04:04:20;;;;;;;4.50;3.07;;;;;;;;;;5010043;28;20451;-55
2023/09/26 04:06:47;;;;;;;3.60;2.50;;;;;;;;;;5008951;28;20509;-57
2023/09/26 04:09:14;;;;;;;4.90;2.57;;;;;;;;;;5007243;28;20472;-53
2023/09/26 04:11:41;;;;;;;3.50;2.53;;;;;;;;;;5000901;28;20545;-55
2023/09/26 04:14:09;;;;;;;3.33;2.43;;;;;;;;;;5010129;28;20443;-55
2023/09/26 04:16:39;;;;;;;5.50;3.00;;;;;;;;;;5004380;28;20498;-56
2023/09/26 04:19:06;;;;;;;3.60;2.30;;;;;;;;;;5003971;28;20542;-55
2023/09/26 04:21:33;;;;;;;5.83;2.97;;;;;;;;;;5007445;28;21033;-55
2023/09/26 04:24:04;;;;;;;6.47;2.97;;;;;;;;;;5010464;28;20947;-56
2023/09/26 04:26:31;;;;;;;3.50;2.73;;;;;;;;;;5007851;28;20461;-55
2023/09/26 04:28:59;;;;;;;3.60;2.53;;;;;;;;;;5009645;28;20837;-55
2023/09/26 04:31:26;;;;;;;3.50;3.07;;;;;;;;;;5003612;28;20475;-57
2023/09/26 04:33:54;;;;;;;3.20;2.20;;;;;;;;;;4997444;28;20574;-55
2023/09/26 04:36:22;;;;;;;5.03;2.90;;;;;;;;;;4991567;28;20541;-55
2023/09/26 04:38:49;;;;;;;3.23;2.33;;;;;;;;;;5044959;23;20493;-54
2023/09/26 04:41:17;;;;;;;6.03;2.93;;;;;;;;;;5050497;28;20441;-54
2023/09/26 04:43:44;;;;;;;6.37;3.70;;;;;;;;;;5050568;28;20868;-54
2023/09/26 04:46:12;;;;;;;6.30;3.83;;;;;;;;;;5051703;28;20872;-55
2023/09/26 04:48:39;;;;;;;5.00;3.13;;;;;;;;;;5050455;28;20834;-55
2023/09/26 04:51:09;;;;;;;4.40;2.83;;;;;;;;;;5049171;28;20888;-55
2023/09/26 04:53:36;;;;;;;4.23;3.20;;;;;;;;;;5049777;28;20544;-55
2023/09/26 04:56:04;;;;;;;16.47;11.47;;;;;;;;;;5048917;28;20441;-55
2023/09/26 04:58:32;;;;;;;7.87;5.80;;;;;;;;;;5048907;28;20469;-54
2023/09/26 05:01:00;;;;;;;6.50;4.43;;;;;;;;;;5049103;28;20899;-55
2023/09/26 05:03:28;;;;;;;6.50;4.00;;;;;;;;;;5049594;28;20528;-55
2023/09/26 05:05:55;;;;;;;6.00;5.00;;;;;;;;;;5050747;28;20512;-55
2023/09/26 05:08:24;;;;;;;6.00;5.10;;;;;;;;;;5049706;28;20460;-55
2023/09/26 05:10:51;;;;;;;4.10;2.83;;;;;;;;;;5049986;28;20433;-55
2023/09/26 05:13:18;;;;;;;6.00;4.20;;;;;;;;;;5050847;28;20433;-55
2023/09/26 05:15:46;;;;;;;6.40;4.10;;;;;;;;;;5050842;28;20437;-55
2023/09/26 05:18:13;;;;;;;6.43;4.07;;;;;;;;;;5050918;28;20460;-55
2023/09/26 05:20:40;;;;;;;32.47;23.87;;;;;;;;;;5050024;28;20508;-56
2023/09/26 05:23:07;;;;;;;13.83;11.00;;;;;;;;;;5049616;28;20527;-55
2023/09/26 05:25:36;;;;;;;22.13;19.00;;;;;;;;;;5049355;28;20496;-56
2023/09/26 05:28:05;;;;;;;42.37;34.87;;;;;;;;;;5049586;28;20620;-54
2023/09/26 05:30:32;;;;;;;16.03;13.13;;;;;;;;;;5050685;28;20442;-55
2023/09/26 05:32:59;;;;;;;6.80;5.30;;;;;;;;;;5051066;28;20523;-56
2023/09/26 05:35:27;;;;;;;9.80;6.97;;;;;;;;;;5051117;28;20441;-55
2023/09/26 05:37:54;;;;;;;18.67;15.53;;;;;;;;;;5050631;28;20551;-55
2023/09/26 05:40:21;;;;;;;11.47;9.40;;;;;;;;;;5050637;28;20489;-54
2023/09/26 05:42:50;;;;;;;12.10;9.60;;;;;;;;;;5051344;28;20560;-54
2023/09/26 05:45:18;;;;;;;9.80;6.87;;;;;;;;;;5050807;28;20471;-55
2023/09/26 05:47:45;;;;;;;12.43;10.30;;;;;;;;;;5050271;28;20457;-54
2023/09/26 05:50:12;;;;;;;9.60;6.87;;;;;;;;;;5048300;28;20448;-55
2023/09/26 05:52:39;;;;;;;15.60;6.60;;;;;;;;;;5050016;28;20491;-56
2023/09/26 05:55:07;;;;;;;13.00;6.00;;;;;;;;;;5050472;28;20532;-56
2023/09/26 05:57:34;;;;;;;12.60;7.67;;;;;;;;;;5049942;28;20540;-55
2023/09/26 06:00:11;;;;;;;20.87;13.20;;;;;;;;;;5050188;28;20539;-55
2023/09/26 06:02:38;;;;;;;64.93;39.90;;;;;;;;;;5050493;28;20834;-55
2023/09/26 06:05:06;;;;;;;9.23;6.33;;;;;;;;;;5050231;28;20928;-56
2023/09/26 06:07:34;;;;;;;21.70;17.03;;;;;;;;;;5050720;28;20476;-55
2023/09/26 06:10:01;;;;;;;10.33;5.07;;;;;;;;;;5049544;28;20824;-57
2023/09/26 06:12:28;;;;;;;5.50;4.13;;;;;;;;;;5049681;28;20959;-57
2023/09/26 06:14:56;;;;;;;5.07;3.53;;;;;;;;;;5049415;28;20445;-56
2023/09/26 06:17:24;;;;;;;13.80;10.47;;;;;;;;;;5049426;28;20538;-57
2023/09/26 06:19:51;;;;;;;6.00;4.60;;;;;;;;;;5048185;28;20559;-57
2023/09/26 06:22:19;;;;;;;30.73;19.83;;;;;;;;;;5049081;28;20474;-54
2023/09/26 06:24:47;;;;;;;11.60;9.43;;;;;;;;;;5048360;28;20812;-54
2023/09/26 06:27:14;;;;;;;8.47;5.83;;;;;;;;;;5047471;28;20449;-54
2023/09/26 06:29:42;;;;;;;11.03;5.00;;;;;;;;;;5048266;28;20449;-54
2023/09/26 06:32:09;;;;;;;11.00;4.97;;;;;;;;;;5049473;28;20532;-54
2023/09/26 06:34:39;;;;;;;5.53;4.30;;;;;;;;;;5050330;28;20525;-54
2023/09/26 06:37:06;;;;;;;6.47;5.73;;;;;;;;;;5049135;28;20460;-55
2023/09/26 06:39:34;;;;;;;4.80;3.87;;;;;;;;;;5049887;28;21042;-55
2023/09/26 06:42:02;;;;;;;7.07;6.37;;;;;;;;;;5049910;28;20519;-55
2023/09/26 06:44:29;;;;;;;27.43;24.63;;;;;;;;;;5049744;28;20488;-55
2023/09/26 06:46:57;;;;;;;23.70;18.80;;;;;;;;;;5049296;28;20455;-54
2023/09/26 06:49:24;;;;;;;14.00;11.83;;;;;;;;;;5049387;28;20535;-54
2023/09/26 06:51:53;;;;;;;7.20;6.40;;;;;;;;;;5048971;28;20457;-55
2023/09/26 06:54:20;;;;;;;5.87;3.40;;;;;;;;;;5049494;28;20995;-54
2023/09/26 06:56:48;;;;;;;6.47;4.90;;;;;;;;;;5049875;28;20460;-54
2023/09/26 06:59:15;;;;;;;19.43;14.07;;;;;;;;;;5049428;28;21390;-54
2023/09/26 07:01:43;;;;;;;114.80;81.37;;;;;;;;;;5049075;28;20595;-54
2023/09/26 07:04:14;;;;;;;23.83;18.70;;;;;;;;;;5049183;28;20445;-54
2023/09/26 07:06:41;;;;;;;19.10;15.57;;;;;;;;;;5050068;28;20473;-55
2023/09/26 07:09:12;;;;;;;7.73;5.90;;;;;;;;;;5049411;28;20515;-55
2023/09/26 07:11:40;;;;;;;5.30;3.63;;;;;;;;;;5049391;28;20876;-54
2023/09/26 07:14:08;;;;;;;5.43;4.00;;;;;;;;;;5044692;28;20520;-56
2023/09/26 07:16:35;;;;;;;8.07;5.30;;;;;;;;;;5050099;28;20548;-54
2023/09/26 07:19:03;;;;;;;9.20;5.93;;;;;;;;;;5049341;28;20461;-56
2023/09/26 07:21:30;;;;;;;12.07;7.30;;;;;;;;;;5047973;28;20855;-54
2023/09/26 07:23:59;;;;;;;20.83;8.10;;;;;;;;;;5049411;28;20956;-54
2023/09/26 07:26:29;;;;;;;17.60;8.63;;;;;;;;;;5049522;28;20516;-54
2023/09/26 07:28:56;;;;;;;14.80;8.33;;;;;;;;;;5049492;28;20472;-54
2023/09/26 07:31:24;;;;;;;12.83;8.43;;;;;;;;;;5050457;28;20449;-54
2023/09/26 07:33:51;;;;;;;11.70;7.93;;;;;;;;;;5052768;28;20547;-54
2023/09/26 07:36:18;;;;;;;13.13;6.97;;;;;;;;;;5053529;28;21019;-54
2023/09/26 07:38:46;;;;;;;11.17;6.67;;;;;;;;;;5052682;28;20476;-55
2023/09/26 07:41:13;;;;;;;7.70;5.87;;;;;;;;;;5046230;28;20844;-54
2023/09/26 07:43:42;;;;;;;6.23;4.60;;;;;;;;;;5053527;28;20524;-54
2023/09/26 07:46:10;;;;;;;6.77;4.20;;;;;;;;;;5051036;28;20446;-54
2023/09/26 07:48:37;;;;;;;5.50;3.77;;;;;;;;;;5050727;28;20976;-54
2023/09/26 07:51:05;;;;;;;5.10;2.87;;;;;;;;;;5050301;28;20495;-56
2023/09/26 07:53:32;;;;;;;5.43;3.63;;;;;;;;;;5048590;28;20824;-55
2023/09/26 07:56:00;;;;;;;6.10;3.80;;;;;;;;;;5038490;28;20895;-55
2023/09/26 07:58:27;;;;;;;5.10;2.83;;;;;;;;;;5045091;28;20466;-54
2023/09/26 08:00:58;;;;;;;4.43;2.97;;;;;;;;;;5046278;28;20502;-55
2023/09/26 08:03:26;;;;;;;3.43;2.90;;;;;;;;;;5044997;28;20978;-55
2023/09/26 08:05:59;;;;;;;4.60;3.57;;;;;;;;;;5051679;28;20805;-54
2023/09/26 08:08:27;;;;;;;5.90;4.77;;;;;;;;;;5045346;28;20555;-54
2023/09/26 08:10:54;;;;;;;5.20;3.60;;;;;;;;;;5050853;28;20437;-55
2023/09/26 08:13:21;;;;;;;6.83;5.00;;;;;;;;;;5050873;28;20445;-55
2023/09/26 08:15:48;;;;;;;5.30;3.90;;;;;;;;;;5050720;28;20542;-55
2023/09/26 08:18:17;;;;;;;4.73;3.80;;;;;;;;;;5051126;28;20519;-54
2023/09/26 08:20:44;;;;;;;5.20;4.00;;;;;;;;;;5045517;28;20481;-55
2023/09/26 08:23:12;;;;;;;5.20;3.33;;;;;;;;;;5051637;28;20449;-54
2023/09/26 08:25:39;;;;;;;4.67;2.80;;;;;;;;;;5047766;28;20449;-55
2023/09/26 08:28:06;;;;;;;6.83;3.10;;;;;;;;;;5051143;28;20461;-54
2023/09/26 08:30:34;;;;;;;5.00;3.90;;;;;;;;;;5051512;28;20863;-54
2023/09/26 08:33:02;;;;;;;5.37;3.13;;;;;;;;;;5050488;28;20438;-55
2023/09/26 08:35:32;;;;;;;7.50;4.20;;;;;;;;;;5050555;28;20924;-55
2023/09/26 08:37:59;;;;;;;5.33;3.30;;;;;;;;;;5050234;28;20988;-55
2023/09/26 08:40:27;;;;;;;4.90;3.30;;;;;;;;;;5044064;28;20508;-55
2023/09/26 08:42:57;;;;;;;5.10;3.40;;;;;;;;;;5048108;28;20487;-55
2023/09/26 08:45:26;;;;;;;6.10;2.97;;;;;;;;;;5051119;28;20502;-55
2023/09/26 08:47:54;;;;;;;7.90;3.70;;;;;;;;;;5051143;28;20461;-55
2023/09/26 08:50:22;;;;;;;6.97;4.17;;;;;;;;;;5050270;28;20633;-55
2023/09/26 08:52:51;;;;;;;5.00;3.30;;;;;;;;;;5051250;28;20508;-55
2023/09/26 08:55:20;;;;;;;4.87;3.67;;;;;;;;;;5050700;28;20889;-56
2023/09/26 08:57:49;;;;;;;4.60;3.73;;;;;;;;;;5050913;28;20993;-54
2023/09/26 09:00:17;;;;;;;6.53;4.90;;;;;;;;;;5051352;28;20507;-54
2023/09/26 09:02:44;;;;;;;6.57;3.70;;;;;;;;;;5050398;28;21030;-55
2023/09/26 09:05:12;;;;;;;4.67;3.37;;;;;;;;;;5050553;28;20526;-55
2023/09/26 09:07:40;;;;;;;4.47;3.70;;;;;;;;;;5051004;28;20489;-55
2023/09/26 09:10:10;;;;;;;5.20;3.30;;;;;;;;;;5050327;28;20524;-55
2023/09/26 09:12:38;;;;;;;6.20;3.40;;;;;;;;;;5043168;28;20937;-55
2023/09/26 09:15:19;;;;;;;7.40;3.23;;;;;;;;;;5040957;28;20771;-55
2023/09/26 09:17:47;;;;;;;5.07;3.10;;;;;;;;;;5037788;28;20997;-55
2023/09/26 09:20:16;;;;;;;4.33;3.03;;;;;;;;;;5036182;28;20450;-55
2023/09/26 09:22:46;;;;;;;5.17;3.70;;;;;;;;;;5034546;28;20842;-55
2023/09/26 09:25:15;;;;;;;4.43;2.97;;;;;;;;;;5049691;28;20515;-55
2023/09/26 09:27:43;;;;;;;5.60;3.63;;;;;;;;;;5050295;28;20548;-54
2023/09/26 09:30:12;;;;;;;6.50;3.40;;;;;;;;;;5050762;28;20453;-54
2023/09/26 09:32:41;;;;;;;4.03;3.03;;;;;;;;;;5050609;28;20945;-55
2023/09/26 09:35:10;;;;;;;5.40;3.90;;;;;;;;;;5050885;28;20449;-56
2023/09/26 09:37:37;;;;;;;6.73;3.20;;;;;;;;;;5049290;28;20874;-55
2023/09/26 09:40:05;;;;;;;4.20;3.30;;;;;;;;;;5050509;28;20438;-55
2023/09/26 09:42:34;;;;;;;5.43;3.60;;;;;;;;;;5049476;28;20560;-55
2023/09/26 09:45:01;;;;;;;4.77;3.00;;;;;;;;;;5050843;28;20441;-55
2023/09/26 09:47:30;;;;;;;4.00;3.03;;;;;;;;;;5051054;28;20441;-55
2023/09/26 09:50:02;;;;;;;4.77;3.47;;;;;;;;;;5049885;28;20445;-55
2023/09/26 09:52:31;;;;;;;5.70;3.50;;;;;;;;;;5048806;28;20477;-55
2023/09/26 09:55:00;;;;;;;4.43;3.50;;;;;;;;;;5050660;28;20515;-55
2023/09/26 09:57:30;;;;;;;4.10;2.87;;;;;;;;;;5049799;28;20833;-55
2023/09/26 09:59:59;;;;;;;4.23;3.10;;;;;;;;;;5050367;28;20922;-56
2023/09/26 10:02:26;;;;;;;4.80;3.20;;;;;;;;;;5046965;28;20481;-55
2023/09/26 10:04:55;;;;;;;4.63;3.27;;;;;;;;;;5046753;28;20523;-55
2023/09/26 10:07:24;;;;;;;5.53;3.27;;;;;;;;;;5047926;28;20519;-55
2023/09/26 10:09:52;;;;;;;6.90;3.80;;;;;;;;;;5040053;28;20540;-55
2023/09/26 10:12:20;;;;;;;5.97;3.73;;;;;;;;;;5045378;28;20445;-56
2023/09/26 10:14:47;;;;;;;5.23;3.03;;;;;;;;;;5049119;28;20441;-56
2023/09/26 10:17:19;;;;;;;5.00;4.10;;;;;;;;;;5049743;28;20875;-56
2023/09/26 10:19:46;;;;;;;5.03;3.93;;;;;;;;;;5050089;28;20446;-55
2023/09/26 10:22:18;;;;;;;4.07;2.67;;;;;;;;;;5040009;28;20478;-56
2023/09/26 10:24:48;;;;;;;5.03;3.13;;;;;;;;;;5029132;28;20450;-55
2023/09/26 10:27:23;;;;;;;4.10;2.90;;;;;;;;;;5046989;28;20461;-55
2023/09/26 10:29:52;;;;;;;4.53;3.17;;;;;;;;;;5045122;28;20448;-55
2023/09/26 10:32:29;;;;;;;5.30;3.60;;;;;;;;;;5046466;28;21170;-55
2023/09/26 10:34:58;;;;;;;4.17;3.27;;;;;;;;;;5043258;28;20483;-55
2023/09/26 10:37:27;;;;;;;5.43;3.53;;;;;;;;;;5047103;28;20441;-55
2023/09/26 10:39:54;;;;;;;5.67;3.40;;;;;;;;;;5089170;23;20478;-55
2023/09/26 10:42:22;;;;;;;4.33;2.90;;;;;;;;;;5022566;28;20486;-55
2023/09/26 10:44:50;;;;;;;4.30;3.03;;;;;;;;;;5026170;28;20528;-54
2023/09/26 10:47:18;;;;;;;4.57;3.10;;;;;;;;;;5025759;28;20528;-54
2023/09/26 10:49:47;;;;;;;5.47;3.40;;;;;;;;;;5013402;28;20549;-55
2023/09/26 10:52:15;;;;;;;5.03;3.10;;;;;;;;;;5007821;28;20473;-55
2023/09/26 10:54:42;;;;;;;4.80;2.83;;;;;;;;;;5007806;28;20940;-53
2023/09/26 10:57:17;;;;;;;5.40;3.37;;;;;;;;;;5007566;28;20451;-54
2023/09/26 10:59:44;;;;;;;3.57;2.90;;;;;;;;;;5009270;28;20553;-56
2023/09/26 11:02:12;;;;;;;3.50;2.70;;;;;;;;;;5003777;28;21002;-54
2023/09/26 11:04:39;;;;;;;6.73;3.57;;;;;;;;;;5008128;28;21019;-55
2023/09/26 11:07:08;;;;;;;5.20;3.67;;;;;;;;;;5012401;28;20450;-57
2023/09/26 11:09:39;;;;;;;4.03;3.10;;;;;;;;;;5013028;28;20498;-56
2023/09/26 11:12:07;;;;;;;4.50;2.60;;;;;;;;;;5011067;28;20837;-54
2023/09/26 11:14:33;;;;;;;4.30;3.10;;;;;;;;;;5012924;28;20486;-56
2023/09/26 11:17:00;;;;;;;4.37;3.10;;;;;;;;;;5011466;28;20443;-54
2023/09/26 11:19:28;;;;;;;7.57;3.80;;;;;;;;;;5008004;28;21019;-55
2023/09/26 11:21:55;;;;;;;3.87;2.87;;;;;;;;;;5012293;28;20577;-55
2023/09/26 11:24:25;;;;;;;4.23;3.20;;;;;;;;;;5012300;28;20507;-56
2023/09/26 11:26:53;;;;;;;4.40;2.67;;;;;;;;;;5013543;28;20454;-54
2023/09/26 11:29:20;;;;;;;4.40;2.80;;;;;;;;;;5013665;28;20498;-54
2023/09/26 11:31:48;;;;;;;3.47;2.83;;;;;;;;;;5011862;28;20435;-56
2023/09/26 11:34:18;;;;;;;4.07;3.00;;;;;;;;;;5013826;28;20533;-55
2023/09/26 11:36:45;;;;;;;4.70;2.90;;;;;;;;;;5014030;28;20545;-54
2023/09/26 11:39:15;;;;;;;6.33;4.13;;;;;;;;;;5013307;28;20561;-54
2023/09/26 11:41:44;;;;;;;5.73;4.27;;;;;;;;;;5013380;28;21018;-55
2023/09/26 11:44:12;;;;;;;4.57;3.63;;;;;;;;;;5013735;28;20447;-55
2023/09/26 11:46:44;;;;;;;4.93;3.47;;;;;;;;;;5013426;28;20451;-54
2023/09/26 11:49:13;;;;;;;5.70;3.03;;;;;;;;;;5013436;28;20474;-56
2023/09/26 11:51:40;;;;;;;6.17;3.57;;;;;;;;;;5013234;28;20873;-55
2023/09/26 11:54:07;;;;;;;4.03;3.50;;;;;;;;;;5013249;28;20818;-55
2023/09/26 11:56:35;;;;;;;5.20;3.47;;;;;;;;;;5013509;28;20935;-54
2023/09/26 11:59:05;;;;;;;4.07;2.90;;;;;;;;;;5013306;28;20494;-56
2023/09/26 12:01:32;;;;;;;4.30;3.07;;;;;;;;;;5012909;28;20479;-56
2023/09/26 12:04:03;;;;;;;4.57;3.30;;;;;;;;;;5013431;28;20501;-54
2023/09/26 12:06:30;;;;;;;7.03;3.73;;;;;;;;;;5013485;28;20450;-56
2023/09/26 12:08:57;;;;;;;3.67;2.73;;;;;;;;;;5012785;28;20470;-56
2023/09/26 12:11:24;;;;;;;3.60;2.63;;;;;;;;;;5013019;28;20443;-56
2023/09/26 12:13:52;;;;;;;4.67;2.70;;;;;;;;;;5013264;28;20792;-55
2023/09/26 12:16:21;;;;;;;4.00;2.93;;;;;;;;;;5011847;28;20474;-57
2023/09/26 12:18:48;;;;;;;4.47;3.30;;;;;;;;;;5012394;28;20465;-54
2023/09/26 12:21:16;;;;;;;4.80;3.07;;;;;;;;;;5012404;28;20538;-56
2023/09/26 12:23:43;;;;;;;8.33;3.37;;;;;;;;;;5012629;28;20447;-56
2023/09/26 12:26:11;;;;;;;4.50;3.00;;;;;;;;;;5012672;28;20746;-54
2023/09/26 12:28:38;;;;;;;4.07;3.20;;;;;;;;;;5012891;28;20828;-54
2023/09/26 12:31:05;;;;;;;3.43;2.60;;;;;;;;;;5012415;28;20924;-56
2023/09/26 12:33:34;;;;;;;4.30;2.93;;;;;;;;;;5012910;28;20498;-54
2023/09/26 12:36:01;;;;;;;3.90;3.30;;;;;;;;;;5012690;28;20540;-53
2023/09/26 12:38:28;;;;;;;5.07;3.03;;;;;;;;;;5012233;28;20987;-56
2023/09/26 12:40:56;;;;;;;4.10;2.63;;;;;;;;;;5012438;28;20462;-57
2023/09/26 12:43:23;;;;;;;4.27;3.10;;;;;;;;;;5012550;28;20493;-55
2023/09/26 12:45:51;;;;;;;4.27;3.30;;;;;;;;;;5012679;28;20823;-56
2023/09/26 12:48:18;;;;;;;4.83;2.93;;;;;;;;;;5012153;28;20987;-54
2023/09/26 12:50:47;;;;;;;5.90;3.13;;;;;;;;;;5012398;28;20442;-56
2023/09/26 12:53:14;;;;;;;4.00;3.00;;;;;;;;;;5012312;28;20439;-56
2023/09/26 12:55:41;;;;;;;3.77;3.17;;;;;;;;;;5012559;28;20447;-55
2023/09/26 12:58:08;;;;;;;4.40;2.90;;;;;;;;;;5012111;28;20495;-57
2023/09/26 13:00:36;;;;;;;5.00;3.13;;;;;;;;;;5012349;28;20873;-54
2023/09/26 13:03:03;;;;;;;4.80;3.23;;;;;;;;;;5012337;28;20518;-55
2023/09/26 13:05:31;;;;;;;4.23;2.63;;;;;;;;;;5012079;28;20455;-56
2023/09/26 13:07:59;;;;;;;8.67;4.13;;;;;;;;;;5012303;28;20444;-55
2023/09/26 13:10:27;;;;;;;7.20;2.80;;;;;;;;;;5011996;28;20529;-55
2023/09/26 13:12:54;;;;;;;6.90;3.90;;;;;;;;;;5012085;28;20447;-55
2023/09/26 13:15:21;;;;;;;16.00;5.47;;;;;;;;;;5012112;28;20447;-56
2023/09/26 13:17:48;;;;;;;6.93;4.07;;;;;;;;;;5011958;28;20439;-55
2023/09/26 13:20:16;;;;;;;5.87;3.50;;;;;;;;;;5011417;28;20943;-56
2023/09/26 13:22:43;;;;;;;7.47;3.53;;;;;;;;;;5011998;28;20828;-55
2023/09/26 13:25:13;;;;;;;4.63;3.10;;;;;;;;;;5011337;28;20930;-56
2023/09/26 13:27:40;;;;;;;4.73;3.37;;;;;;;;;;5010689;28;20451;-57
2023/09/26 13:30:08;;;;;;;3.83;3.03;;;;;;;;;;5011015;28;20843;-55
2023/09/26 13:32:35;;;;;;;5.87;2.97;;;;;;;;;;5011951;28;20444;-56
2023/09/26 13:35:04;;;;;;;5.40;2.40;;;;;;;;;;5011842;28;20513;-54
2023/09/26 13:37:31;;;;;;;4.43;3.20;;;;;;;;;;5011795;28;20451;-54
2023/09/26 13:39:59;;;;;;;3.30;2.70;;;;;;;;;;5011581;28;20562;-57
2023/09/26 13:42:27;;;;;;;4.90;3.43;;;;;;;;;;5011581;28;20486;-56
2023/09/26 13:44:54;;;;;;;4.67;3.40;;;;;;;;;;5011553;28;20451;-56
2023/09/26 13:47:22;;;;;;;4.30;3.00;;;;;;;;;;5011549;28;21467;-54
2023/09/26 13:49:49;;;;;;;3.53;2.80;;;;;;;;;;5011289;28;20554;-54
2023/09/26 13:52:16;;;;;;;4.07;2.97;;;;;;;;;;5010055;28;20997;-54
2023/09/26 13:54:44;;;;;;;6.97;4.00;;;;;;;;;;5010935;28;20570;-55
2023/09/26 13:57:13;;;;;;;4.80;3.00;;;;;;;;;;5011362;28;20632;-55
2023/09/26 13:59:43;;;;;;;4.80;3.80;;;;;;;;;;5011081;28;20478;-54
2023/09/26 14:02:10;;;;;;;4.43;2.90;;;;;;;;;;5011083;28;20537;-55
2023/09/26 14:04:37;;;;;;;4.97;3.27;;;;;;;;;;5010951;28;20951;-55
2023/09/26 14:07:04;;;;;;;4.63;3.70;;;;;;;;;;5011008;28;20950;-56
2023/09/26 14:09:32;;;;;;;5.10;3.17;;;;;;;;;;5010934;28;20475;-57
2023/09/26 14:12:03;;;;;;;4.10;3.50;;;;;;;;;;5011383;28;20820;-56
2023/09/26 14:14:30;;;;;;;6.07;4.00;;;;;;;;;;5011217;28;20448;-55
2023/09/26 14:16:59;;;;;;;6.07;4.63;;;;;;;;;;5010933;28;20509;-56
2023/09/26 14:19:26;;;;;;;8.73;6.77;;;;;;;;;;5010397;28;20459;-56
2023/09/26 14:21:53;;;;;;;5.83;4.20;;;;;;;;;;5010510;28;20505;-54
2023/09/26 14:24:21;;;;;;;5.30;3.23;;;;;;;;;;5010613;28;20447;-55
2023/09/26 14:26:51;;;;;;;3.90;3.43;;;;;;;;;;5009569;28;20592;-55
2023/09/26 14:29:18;;;;;;;7.70;2.97;;;;;;;;;;5009939;28;20862;-54
2023/09/26 14:31:45;;;;;;;5.13;3.03;;;;;;;;;;5010315;28;20513;-55
2023/09/26 14:34:14;;;;;;;4.40;2.80;;;;;;;;;;5010177;28;20976;-54
2023/09/26 14:36:41;;;;;;;4.07;3.30;;;;;;;;;;5010222;28;20447;-56
2023/09/26 14:39:09;;;;;;;5.20;3.10;;;;;;;;;;5010080;28;20467;-54
2023/09/26 14:41:36;;;;;;;4.90;3.30;;;;;;;;;;5009965;28;20534;-54
2023/09/26 14:44:03;;;;;;;5.70;2.80;;;;;;;;;;5010405;28;20553;-54